Current Weather

Jaffrey Mini-Slvr Rnch Apt

Jaffrey Mini-Slvr Rnch Apt, New Hampshire (KAFN)

Report from: Sunday, May 22, 2022 3:52 AM EDT
Current time: Sunday, May 22, 2022 4:14 AM EDT

Nearby weather
Weather history
Weather forecast

Present weatherMist
Temperature17.8°C (64.0°F)
Dew point17.2°C (63.0°F)
Winds 3 kts (1.5 m/s, 3.5 mph) South (180°)
Visibility4 mi. (6.4 km)
Clouds Few clouds 300 ft. (91 m)
Altimeter30.02 in.Hg (1017 mB)
Relative humidity96 %
Density altitude485 ft. (148 m)
Sea-level pressure101.6 kPa (1016 mB, 30.01 in.Hg)
Remarks Fully automated report
Automated weather observing station with precipitation discriminator
Flight conditions Marginal Visual Meteorological Conditions
Raw dataKAFN 220752Z AUTO 18003KT 4SM BR FEW003 18/17 A3002 RMK AO2 SLP164 T01780172
An error has occurred. This application may no longer respond until reloaded. Reload 🗙